sensor_id;sensor_type;location;lat;lon;timestamp;temperature;humidity
59075;DHT22;44860;53.020;6.738;2022-09-27T00:01:15;10.60;99.90
59075;DHT22;44860;53.020;6.738;2022-09-27T00:03:41;10.60;99.90
59075;DHT22;44860;53.020;6.738;2022-09-27T00:06:14;10.60;99.90
59075;DHT22;44860;53.020;6.738;2022-09-27T00:08:40;10.60;99.90
59075;DHT22;44860;53.020;6.738;2022-09-27T00:11:19;10.60;99.90
59075;DHT22;44860;53.020;6.738;2022-09-27T00:13:46;10.50;99.90
59075;DHT22;44860;53.020;6.738;2022-09-27T00:16:12;10.50;99.90
59075;DHT22;44860;53.020;6.738;2022-09-27T00:18:38;10.50;99.90
59075;DHT22;44860;53.020;6.738;2022-09-27T00:21:09;10.40;99.90
59075;DHT22;44860;53.020;6.738;2022-09-27T00:23:36;10.40;99.90
59075;DHT22;44860;53.020;6.738;2022-09-27T00:26:02;10.40;99.90
59075;DHT22;44860;53.020;6.738;2022-09-27T00:28:28;10.40;99.90
59075;DHT22;44860;53.020;6.738;2022-09-27T00:30:54;10.30;99.90
59075;DHT22;44860;53.020;6.738;2022-09-27T00:33:20;10.30;99.90
59075;DHT22;44860;53.020;6.738;2022-09-27T00:35:45;10.30;99.90
59075;DHT22;44860;53.020;6.738;2022-09-27T00:38:11;10.30;99.90
59075;DHT22;44860;53.020;6.738;2022-09-27T00:40:37;10.30;99.90
59075;DHT22;44860;53.020;6.738;2022-09-27T00:43:20;10.30;99.90
59075;DHT22;44860;53.020;6.738;2022-09-27T00:45:52;10.30;99.90
59075;DHT22;44860;53.020;6.738;2022-09-27T00:48:22;10.30;99.90
59075;DHT22;44860;53.020;6.738;2022-09-27T00:50:52;10.30;99.90
59075;DHT22;44860;53.020;6.738;2022-09-27T00:56:04;10.30;99.90
59075;DHT22;44860;53.020;6.738;2022-09-27T00:58:35;10.30;99.90
59075;DHT22;44860;53.020;6.738;2022-09-27T01:01:05;10.20;99.90
59075;DHT22;44860;53.020;6.738;2022-09-27T01:05:57;10.20;99.90
59075;DHT22;44860;53.020;6.738;2022-09-27T01:08:23;10.20;99.90
59075;DHT22;44860;53.020;6.738;2022-09-27T01:11:12;10.20;99.90
59075;DHT22;44860;53.020;6.738;2022-09-27T01:28:31;10.20;99.90
59075;DHT22;44860;53.020;6.738;2022-09-27T01:31:05;10.10;99.90
59075;DHT22;44860;53.020;6.738;2022-09-27T01:36:41;10.10;99.90
59075;DHT22;44860;53.020;6.738;2022-09-27T01:46:54;10.10;99.90
59075;DHT22;44860;53.020;6.738;2022-09-27T01:49:29;10.00;99.90
59075;DHT22;44860;53.020;6.738;2022-09-27T01:51:59;10.10;99.90
59075;DHT22;44860;53.020;6.738;2022-09-27T01:54:34;10.10;99.90
59075;DHT22;44860;53.020;6.738;2022-09-27T01:57:01;10.10;99.90
59075;DHT22;44860;53.020;6.738;2022-09-27T01:59:37;10.10;99.90
59075;DHT22;44860;53.020;6.738;2022-09-27T02:02:09;10.10;99.90
59075;DHT22;44860;53.020;6.738;2022-09-27T02:04:38;10.10;99.90
59075;DHT22;44860;53.020;6.738;2022-09-27T02:07:11;10.10;99.90
59075;DHT22;44860;53.020;6.738;2022-09-27T02:09:47;10.10;99.90
59075;DHT22;44860;53.020;6.738;2022-09-27T02:12:18;10.10;99.90
59075;DHT22;44860;53.020;6.738;2022-09-27T02:14:52;10.10;99.90
59075;DHT22;44860;53.020;6.738;2022-09-27T02:22:59;10.10;99.90
59075;DHT22;44860;53.020;6.738;2022-09-27T02:25:37;10.00;99.90
59075;DHT22;44860;53.020;6.738;2022-09-27T02:28:29;10.10;99.90
59075;DHT22;44860;53.020;6.738;2022-09-27T02:30:57;10.00;99.90
59075;DHT22;44860;53.020;6.738;2022-09-27T02:33:27;10.00;99.90
59075;DHT22;44860;53.020;6.738;2022-09-27T02:35:55;10.00;99.90
59075;DHT22;44860;53.020;6.738;2022-09-27T02:38:20;10.00;99.90
59075;DHT22;44860;53.020;6.738;2022-09-27T02:40:46;10.00;99.90
59075;DHT22;44860;53.020;6.738;2022-09-27T02:43:14;9.90;99.90
59075;DHT22;44860;53.020;6.738;2022-09-27T02:45:53;9.90;99.90
59075;DHT22;44860;53.020;6.738;2022-09-27T02:51:24;9.90;99.90
59075;DHT22;44860;53.020;6.738;2022-09-27T02:54:30;9.90;99.90
59075;DHT22;44860;53.020;6.738;2022-09-27T03:02:28;9.90;99.90
59075;DHT22;44860;53.020;6.738;2022-09-27T03:05:04;9.90;99.90
59075;DHT22;44860;53.020;6.738;2022-09-27T03:07:31;9.90;99.90
59075;DHT22;44860;53.020;6.738;2022-09-27T03:09:56;9.90;99.90
59075;DHT22;44860;53.020;6.738;2022-09-27T03:12:22;9.90;99.90
59075;DHT22;44860;53.020;6.738;2022-09-27T03:14:56;9.90;99.90
59075;DHT22;44860;53.020;6.738;2022-09-27T03:17:22;9.90;99.90
59075;DHT22;44860;53.020;6.738;2022-09-27T03:19:48;9.90;99.90
59075;DHT22;44860;53.020;6.738;2022-09-27T03:22:14;9.90;99.90
59075;DHT22;44860;53.020;6.738;2022-09-27T03:24:40;9.90;99.90
59075;DHT22;44860;53.020;6.738;2022-09-27T03:27:06;9.90;99.90
59075;DHT22;44860;53.020;6.738;2022-09-27T03:29:31;9.80;99.90
59075;DHT22;44860;53.020;6.738;2022-09-27T03:31:57;9.80;99.90
59075;DHT22;44860;53.020;6.738;2022-09-27T03:34:23;9.80;99.90
59075;DHT22;44860;53.020;6.738;2022-09-27T03:36:49;9.80;99.90
59075;DHT22;44860;53.020;6.738;2022-09-27T03:39:15;9.80;99.90
59075;DHT22;44860;53.020;6.738;2022-09-27T03:41:41;9.70;99.90
59075;DHT22;44860;53.020;6.738;2022-09-27T03:44:06;9.80;99.90
59075;DHT22;44860;53.020;6.738;2022-09-27T03:46:32;9.70;99.90
59075;DHT22;44860;53.020;6.738;2022-09-27T03:48:58;9.70;99.90
59075;DHT22;44860;53.020;6.738;2022-09-27T03:51:24;9.70;99.90
59075;DHT22;44860;53.020;6.738;2022-09-27T03:53:50;9.60;99.90
59075;DHT22;44860;53.020;6.738;2022-09-27T03:56:16;9.70;99.90
59075;DHT22;44860;53.020;6.738;2022-09-27T03:58:42;9.60;99.90
59075;DHT22;44860;53.020;6.738;2022-09-27T04:01:08;9.60;99.90
59075;DHT22;44860;53.020;6.738;2022-09-27T04:03:33;9.60;99.90
59075;DHT22;44860;53.020;6.738;2022-09-27T04:06:01;9.60;99.90
59075;DHT22;44860;53.020;6.738;2022-09-27T04:08:27;9.60;99.90
59075;DHT22;44860;53.020;6.738;2022-09-27T04:10:52;9.60;99.90
59075;DHT22;44860;53.020;6.738;2022-09-27T04:13:18;9.60;99.90
59075;DHT22;44860;53.020;6.738;2022-09-27T04:15:44;9.60;99.90
59075;DHT22;44860;53.020;6.738;2022-09-27T04:18:10;9.60;99.90
59075;DHT22;44860;53.020;6.738;2022-09-27T04:20:36;9.50;99.90
59075;DHT22;44860;53.020;6.738;2022-09-27T04:23:01;9.60;99.90
59075;DHT22;44860;53.020;6.738;2022-09-27T04:25:27;9.60;99.90
59075;DHT22;44860;53.020;6.738;2022-09-27T04:27:53;9.60;99.90
59075;DHT22;44860;53.020;6.738;2022-09-27T04:30:20;9.60;99.90
59075;DHT22;44860;53.020;6.738;2022-09-27T04:32:46;9.60;99.90
59075;DHT22;44860;53.020;6.738;2022-09-27T04:35:13;9.60;99.90
59075;DHT22;44860;53.020;6.738;2022-09-27T04:37:58;9.60;99.90
59075;DHT22;44860;53.020;6.738;2022-09-27T04:40:24;9.60;99.90
59075;DHT22;44860;53.020;6.738;2022-09-27T04:42:50;9.60;99.90
59075;DHT22;44860;53.020;6.738;2022-09-27T04:45:17;9.60;99.90
59075;DHT22;44860;53.020;6.738;2022-09-27T04:47:44;9.60;99.90
59075;DHT22;44860;53.020;6.738;2022-09-27T04:50:11;9.60;99.90
59075;DHT22;44860;53.020;6.738;2022-09-27T04:52:37;9.60;99.90
59075;DHT22;44860;53.020;6.738;2022-09-27T04:55:03;9.60;99.90
59075;DHT22;44860;53.020;6.738;2022-09-27T04:57:29;9.60;99.90
59075;DHT22;44860;53.020;6.738;2022-09-27T04:59:55;9.60;99.90
59075;DHT22;44860;53.020;6.738;2022-09-27T05:02:20;9.60;99.90
59075;DHT22;44860;53.020;6.738;2022-09-27T05:04:46;9.60;99.90
59075;DHT22;44860;53.020;6.738;2022-09-27T05:07:11;9.60;99.90
59075;DHT22;44860;53.020;6.738;2022-09-27T05:09:37;9.60;99.90
59075;DHT22;44860;53.020;6.738;2022-09-27T05:12:03;9.60;99.90
59075;DHT22;44860;53.020;6.738;2022-09-27T05:14:31;9.60;99.90
59075;DHT22;44860;53.020;6.738;2022-09-27T05:16:57;9.60;99.90
59075;DHT22;44860;53.020;6.738;2022-09-27T05:19:23;9.60;99.90
59075;DHT22;44860;53.020;6.738;2022-09-27T05:21:48;9.60;99.90
59075;DHT22;44860;53.020;6.738;2022-09-27T05:24:15;9.60;99.90
59075;DHT22;44860;53.020;6.738;2022-09-27T05:26:41;9.60;99.90
59075;DHT22;44860;53.020;6.738;2022-09-27T05:29:07;9.60;99.90
59075;DHT22;44860;53.020;6.738;2022-09-27T05:31:32;9.60;99.90
59075;DHT22;44860;53.020;6.738;2022-09-27T05:33:58;9.60;99.90
59075;DHT22;44860;53.020;6.738;2022-09-27T05:36:24;9.60;99.90
59075;DHT22;44860;53.020;6.738;2022-09-27T05:38:49;9.50;99.90
59075;DHT22;44860;53.020;6.738;2022-09-27T05:41:15;9.50;99.90
59075;DHT22;44860;53.020;6.738;2022-09-27T05:43:41;9.50;99.90
59075;DHT22;44860;53.020;6.738;2022-09-27T05:46:07;9.50;99.90
59075;DHT22;44860;53.020;6.738;2022-09-27T05:48:33;9.50;99.90
59075;DHT22;44860;53.020;6.738;2022-09-27T05:50:58;9.50;99.90
59075;DHT22;44860;53.020;6.738;2022-09-27T05:53:24;9.50;99.90
59075;DHT22;44860;53.020;6.738;2022-09-27T05:55:50;9.50;99.90
59075;DHT22;44860;53.020;6.738;2022-09-27T05:58:16;9.40;99.90
59075;DHT22;44860;53.020;6.738;2022-09-27T06:00:42;9.40;99.90
59075;DHT22;44860;53.020;6.738;2022-09-27T06:03:10;9.40;99.90
59075;DHT22;44860;53.020;6.738;2022-09-27T06:05:38;9.40;99.90
59075;DHT22;44860;53.020;6.738;2022-09-27T06:08:07;9.40;99.90
59075;DHT22;44860;53.020;6.738;2022-09-27T06:10:33;9.40;99.90
59075;DHT22;44860;53.020;6.738;2022-09-27T06:13:00;9.40;99.90
59075;DHT22;44860;53.020;6.738;2022-09-27T06:15:27;9.40;99.90
59075;DHT22;44860;53.020;6.738;2022-09-27T06:17:53;9.40;99.90
59075;DHT22;44860;53.020;6.738;2022-09-27T06:20:19;9.40;99.90
59075;DHT22;44860;53.020;6.738;2022-09-27T06:22:45;9.40;99.90
59075;DHT22;44860;53.020;6.738;2022-09-27T06:25:11;9.50;99.90
59075;DHT22;44860;53.020;6.738;2022-09-27T06:27:37;9.50;99.90
59075;DHT22;44860;53.020;6.738;2022-09-27T06:30:04;9.40;99.90
59075;DHT22;44860;53.020;6.738;2022-09-27T06:32:29;9.40;99.90
59075;DHT22;44860;53.020;6.738;2022-09-27T06:34:56;9.40;99.90
59075;DHT22;44860;53.020;6.738;2022-09-27T06:37:24;9.50;99.90
59075;DHT22;44860;53.020;6.738;2022-09-27T06:39:54;9.50;99.90
59075;DHT22;44860;53.020;6.738;2022-09-27T06:42:20;9.50;99.90
59075;DHT22;44860;53.020;6.738;2022-09-27T06:44:46;9.50;99.90
59075;DHT22;44860;53.020;6.738;2022-09-27T06:47:17;9.50;99.90
59075;DHT22;44860;53.020;6.738;2022-09-27T06:49:43;9.50;99.90
59075;DHT22;44860;53.020;6.738;2022-09-27T06:52:09;9.50;99.90
59075;DHT22;44860;53.020;6.738;2022-09-27T06:54:35;9.50;99.90
59075;DHT22;44860;53.020;6.738;2022-09-27T06:57:01;9.50;99.90
59075;DHT22;44860;53.020;6.738;2022-09-27T06:59:27;9.50;99.90
59075;DHT22;44860;53.020;6.738;2022-09-27T07:02:21;9.50;99.90
59075;DHT22;44860;53.020;6.738;2022-09-27T07:04:47;9.60;99.90
59075;DHT22;44860;53.020;6.738;2022-09-27T07:07:12;9.50;99.90
59075;DHT22;44860;53.020;6.738;2022-09-27T07:09:38;9.60;99.90
59075;DHT22;44860;53.020;6.738;2022-09-27T07:12:04;9.60;99.90
59075;DHT22;44860;53.020;6.738;2022-09-27T07:14:30;9.60;99.90
59075;DHT22;44860;53.020;6.738;2022-09-27T07:16:58;9.60;99.90
59075;DHT22;44860;53.020;6.738;2022-09-27T07:19:23;9.70;99.90
59075;DHT22;44860;53.020;6.738;2022-09-27T07:21:50;9.70;99.90
59075;DHT22;44860;53.020;6.738;2022-09-27T07:24:15;9.70;99.90
59075;DHT22;44860;53.020;6.738;2022-09-27T07:26:41;9.80;99.90
59075;DHT22;44860;53.020;6.738;2022-09-27T07:29:07;9.90;99.90
59075;DHT22;44860;53.020;6.738;2022-09-27T07:31:32;9.90;99.90
59075;DHT22;44860;53.020;6.738;2022-09-27T07:33:58;10.00;99.90
59075;DHT22;44860;53.020;6.738;2022-09-27T07:36:23;10.00;99.90
59075;DHT22;44860;53.020;6.738;2022-09-27T07:38:49;10.00;99.90
59075;DHT22;44860;53.020;6.738;2022-09-27T07:41:15;10.00;99.90
59075;DHT22;44860;53.020;6.738;2022-09-27T07:43:41;10.10;99.90
59075;DHT22;44860;53.020;6.738;2022-09-27T07:46:09;10.10;99.90
59075;DHT22;44860;53.020;6.738;2022-09-27T07:48:35;10.10;99.90
59075;DHT22;44860;53.020;6.738;2022-09-27T07:51:01;10.10;99.90
59075;DHT22;44860;53.020;6.738;2022-09-27T07:53:27;10.10;99.90
59075;DHT22;44860;53.020;6.738;2022-09-27T07:55:53;10.10;99.90
59075;DHT22;44860;53.020;6.738;2022-09-27T07:58:19;10.10;99.90
59075;DHT22;44860;53.020;6.738;2022-09-27T08:00:46;10.10;99.90
59075;DHT22;44860;53.020;6.738;2022-09-27T08:03:15;10.20;99.90
59075;DHT22;44860;53.020;6.738;2022-09-27T08:05:46;10.20;99.90
59075;DHT22;44860;53.020;6.738;2022-09-27T08:08:12;10.20;99.90
59075;DHT22;44860;53.020;6.738;2022-09-27T08:10:38;10.30;99.90
59075;DHT22;44860;53.020;6.738;2022-09-27T08:13:09;10.30;99.90
59075;DHT22;44860;53.020;6.738;2022-09-27T08:15:35;10.30;99.90
59075;DHT22;44860;53.020;6.738;2022-09-27T08:18:06;10.30;99.90
59075;DHT22;44860;53.020;6.738;2022-09-27T08:20:32;10.40;99.90
59075;DHT22;44860;53.020;6.738;2022-09-27T08:22:57;10.40;99.90
59075;DHT22;44860;53.020;6.738;2022-09-27T08:25:23;10.50;99.90
59075;DHT22;44860;53.020;6.738;2022-09-27T08:27:54;10.50;99.90
59075;DHT22;44860;53.020;6.738;2022-09-27T08:30:21;10.60;99.90
59075;DHT22;44860;53.020;6.738;2022-09-27T08:32:46;10.60;99.90
59075;DHT22;44860;53.020;6.738;2022-09-27T08:35:12;10.60;99.90
59075;DHT22;44860;53.020;6.738;2022-09-27T08:37:39;10.60;99.90
59075;DHT22;44860;53.020;6.738;2022-09-27T08:40:06;10.70;99.90
59075;DHT22;44860;53.020;6.738;2022-09-27T08:42:38;10.70;99.90
59075;DHT22;44860;53.020;6.738;2022-09-27T08:45:30;10.70;99.90
59075;DHT22;44860;53.020;6.738;2022-09-27T08:47:59;10.70;99.90
59075;DHT22;44860;53.020;6.738;2022-09-27T08:50:44;10.80;99.90
59075;DHT22;44860;53.020;6.738;2022-09-27T08:53:38;10.80;99.90
59075;DHT22;44860;53.020;6.738;2022-09-27T08:56:07;10.80;99.90
59075;DHT22;44860;53.020;6.738;2022-09-27T09:01:03;10.90;99.90
59075;DHT22;44860;53.020;6.738;2022-09-27T09:03:35;11.00;99.90
59075;DHT22;44860;53.020;6.738;2022-09-27T09:09:51;11.00;99.90
59075;DHT22;44860;53.020;6.738;2022-09-27T09:15:18;11.10;99.90
59075;DHT22;44860;53.020;6.738;2022-09-27T09:23:27;11.30;99.90
59075;DHT22;44860;53.020;6.738;2022-09-27T09:31:47;11.60;99.90
59075;DHT22;44860;53.020;6.738;2022-09-27T09:39:42;11.70;99.90
59075;DHT22;44860;53.020;6.738;2022-09-27T09:49:54;11.90;99.90
59075;DHT22;44860;53.020;6.738;2022-09-27T09:52:23;11.90;99.90
59075;DHT22;44860;53.020;6.738;2022-09-27T09:54:56;12.00;99.90
59075;DHT22;44860;53.020;6.738;2022-09-27T09:58:04;12.00;99.90
59075;DHT22;44860;53.020;6.738;2022-09-27T10:00:23;12.00;99.90
59075;DHT22;44860;53.020;6.738;2022-09-27T10:02:51;12.10;99.90
59075;DHT22;44860;53.020;6.738;2022-09-27T10:05:20;12.10;99.90
59075;DHT22;44860;53.020;6.738;2022-09-27T10:07:47;12.20;99.90
59075;DHT22;44860;53.020;6.738;2022-09-27T10:10:16;12.30;99.90
59075;DHT22;44860;53.020;6.738;2022-09-27T10:12:43;12.30;99.90
59075;DHT22;44860;53.020;6.738;2022-09-27T10:15:23;12.40;99.90
59075;DHT22;44860;53.020;6.738;2022-09-27T10:17:54;12.50;99.90
59075;DHT22;44860;53.020;6.738;2022-09-27T10:20:38;12.40;99.90
59075;DHT22;44860;53.020;6.738;2022-09-27T10:23:15;12.40;99.90
59075;DHT22;44860;53.020;6.738;2022-09-27T10:25:56;12.30;99.90
59075;DHT22;44860;53.020;6.738;2022-09-27T10:28:39;12.00;99.90
59075;DHT22;44860;53.020;6.738;2022-09-27T10:31:07;11.80;99.90
59075;DHT22;44860;53.020;6.738;2022-09-27T10:33:36;11.60;99.90
59075;DHT22;44860;53.020;6.738;2022-09-27T10:36:03;11.50;99.90
59075;DHT22;44860;53.020;6.738;2022-09-27T10:38:55;11.40;99.90
59075;DHT22;44860;53.020;6.738;2022-09-27T10:41:37;11.20;99.90
59075;DHT22;44860;53.020;6.738;2022-09-27T10:44:29;11.10;99.90
59075;DHT22;44860;53.020;6.738;2022-09-27T10:47:08;11.00;99.90
59075;DHT22;44860;53.020;6.738;2022-09-27T10:49:34;11.00;99.90
59075;DHT22;44860;53.020;6.738;2022-09-27T10:52:26;11.00;99.90
59075;DHT22;44860;53.020;6.738;2022-09-27T10:54:57;11.00;99.90
59075;DHT22;44860;53.020;6.738;2022-09-27T10:57:27;11.00;99.90
59075;DHT22;44860;53.020;6.738;2022-09-27T11:00:26;11.10;99.90
59075;DHT22;44860;53.020;6.738;2022-09-27T11:02:56;11.10;99.90
59075;DHT22;44860;53.020;6.738;2022-09-27T11:07:53;11.10;99.90
59075;DHT22;44860;53.020;6.738;2022-09-27T11:10:28;11.10;99.90
59075;DHT22;44860;53.020;6.738;2022-09-27T11:13:14;11.10;99.90
59075;DHT22;44860;53.020;6.738;2022-09-27T11:21:25;11.20;99.90
59075;DHT22;44860;53.020;6.738;2022-09-27T11:31:51;11.60;99.90
59075;DHT22;44860;53.020;6.738;2022-09-27T11:37:15;11.50;99.90
59075;DHT22;44860;53.020;6.738;2022-09-27T11:40:06;11.50;99.90
59075;DHT22;44860;53.020;6.738;2022-09-27T11:48:54;11.20;99.90
59075;DHT22;44860;53.020;6.738;2022-09-27T11:56:46;11.10;99.90
59075;DHT22;44860;53.020;6.738;2022-09-27T11:59:38;11.20;99.90
59075;DHT22;44860;53.020;6.738;2022-09-27T12:07:44;11.70;99.90
59075;DHT22;44860;53.020;6.738;2022-09-27T12:10:15;11.80;99.90
59075;DHT22;44860;53.020;6.738;2022-09-27T12:12:44;12.00;99.90
59075;DHT22;44860;53.020;6.738;2022-09-27T12:15:32;12.10;99.90
59075;DHT22;44860;53.020;6.738;2022-09-27T12:20:35;12.40;99.90
59075;DHT22;44860;53.020;6.738;2022-09-27T12:23:05;12.50;99.90
59075;DHT22;44860;53.020;6.738;2022-09-27T12:25:37;12.60;99.90
59075;DHT22;44860;53.020;6.738;2022-09-27T12:28:11;12.70;99.90
59075;DHT22;44860;53.020;6.738;2022-09-27T12:30:41;12.80;99.90
59075;DHT22;44860;53.020;6.738;2022-09-27T12:33:22;12.80;99.90
59075;DHT22;44860;53.020;6.738;2022-09-27T12:35:52;12.80;99.90
59075;DHT22;44860;53.020;6.738;2022-09-27T12:38:45;12.80;99.90
59075;DHT22;44860;53.020;6.738;2022-09-27T12:41:11;12.70;99.90
59075;DHT22;44860;53.020;6.738;2022-09-27T12:43:43;12.70;99.90
59075;DHT22;44860;53.020;6.738;2022-09-27T12:51:39;12.60;99.90
59075;DHT22;44860;53.020;6.738;2022-09-27T13:12:58;12.40;99.90
59075;DHT22;44860;53.020;6.738;2022-09-27T13:15:29;12.40;99.90
59075;DHT22;44860;53.020;6.738;2022-09-27T13:17:57;12.30;99.90
59075;DHT22;44860;53.020;6.738;2022-09-27T13:23:03;12.10;99.90
59075;DHT22;44860;53.020;6.738;2022-09-27T13:31:14;11.80;99.90
59075;DHT22;44860;53.020;6.738;2022-09-27T13:33:44;11.70;99.90
59075;DHT22;44860;53.020;6.738;2022-09-27T13:47:02;12.10;99.90
59075;DHT22;44860;53.020;6.738;2022-09-27T13:49:36;12.10;99.90
59075;DHT22;44860;53.020;6.738;2022-09-27T13:52:13;12.10;99.90
59075;DHT22;44860;53.020;6.738;2022-09-27T13:54:52;12.10;99.90
59075;DHT22;44860;53.020;6.738;2022-09-27T14:00:23;12.10;99.90
59075;DHT22;44860;53.020;6.738;2022-09-27T14:03:05;12.10;99.90
59075;DHT22;44860;53.020;6.738;2022-09-27T14:05:39;12.10;99.90
59075;DHT22;44860;53.020;6.738;2022-09-27T14:10:47;11.80;99.90
59075;DHT22;44860;53.020;6.738;2022-09-27T14:13:17;11.60;99.90
59075;DHT22;44860;53.020;6.738;2022-09-27T14:15:45;11.50;99.90
59075;DHT22;44860;53.020;6.738;2022-09-27T14:18:11;11.40;99.90
59075;DHT22;44860;53.020;6.738;2022-09-27T14:20:48;11.20;99.90
59075;DHT22;44860;53.020;6.738;2022-09-27T14:23:22;11.20;99.90
59075;DHT22;44860;53.020;6.738;2022-09-27T14:25:51;11.10;99.90
59075;DHT22;44860;53.020;6.738;2022-09-27T14:28:26;11.00;99.90
59075;DHT22;44860;53.020;6.738;2022-09-27T14:31:17;10.90;99.90
59075;DHT22;44860;53.020;6.738;2022-09-27T14:33:43;10.90;99.90
59075;DHT22;44860;53.020;6.738;2022-09-27T14:36:23;10.80;99.90
59075;DHT22;44860;53.020;6.738;2022-09-27T14:39:20;10.80;99.90
59075;DHT22;44860;53.020;6.738;2022-09-27T14:41:46;10.70;99.90
59075;DHT22;44860;53.020;6.738;2022-09-27T14:44:17;10.70;99.90
59075;DHT22;44860;53.020;6.738;2022-09-27T14:46:44;10.70;99.90
59075;DHT22;44860;53.020;6.738;2022-09-27T14:49:21;10.70;99.90
59075;DHT22;44860;53.020;6.738;2022-09-27T14:51:52;10.60;99.90
59075;DHT22;44860;53.020;6.738;2022-09-27T14:54:23;10.60;99.90
59075;DHT22;44860;53.020;6.738;2022-09-27T14:56:52;10.60;99.90
59075;DHT22;44860;53.020;6.738;2022-09-27T14:59:29;10.70;99.90
59075;DHT22;44860;53.020;6.738;2022-09-27T15:02:01;10.70;99.90
59075;DHT22;44860;53.020;6.738;2022-09-27T15:04:30;10.70;99.90
59075;DHT22;44860;53.020;6.738;2022-09-27T15:06:57;10.70;99.90
59075;DHT22;44860;53.020;6.738;2022-09-27T15:09:25;10.70;99.90
59075;DHT22;44860;53.020;6.738;2022-09-27T15:11:56;10.70;99.90
59075;DHT22;44860;53.020;6.738;2022-09-27T15:14:25;10.70;99.90
59075;DHT22;44860;53.020;6.738;2022-09-27T15:16:53;10.70;99.90
59075;DHT22;44860;53.020;6.738;2022-09-27T15:19:27;10.70;99.90
59075;DHT22;44860;53.020;6.738;2022-09-27T15:21:54;10.70;99.90
59075;DHT22;44860;53.020;6.738;2022-09-27T15:27:03;10.70;99.90
59075;DHT22;44860;53.020;6.738;2022-09-27T15:29:30;10.70;99.90
59075;DHT22;44860;53.020;6.738;2022-09-27T15:32:02;10.80;99.90
59075;DHT22;44860;53.020;6.738;2022-09-27T15:34:29;10.80;99.90
59075;DHT22;44860;53.020;6.738;2022-09-27T15:36:58;10.80;99.90
59075;DHT22;44860;53.020;6.738;2022-09-27T15:39:40;10.80;99.90
59075;DHT22;44860;53.020;6.738;2022-09-27T15:42:12;10.80;99.90
59075;DHT22;44860;53.020;6.738;2022-09-27T15:52:48;10.70;99.90
59075;DHT22;44860;53.020;6.738;2022-09-27T15:55:27;10.70;99.90
59075;DHT22;44860;53.020;6.738;2022-09-27T15:58:04;10.70;99.90
59075;DHT22;44860;53.020;6.738;2022-09-27T16:00:33;10.70;99.90
59075;DHT22;44860;53.020;6.738;2022-09-27T16:03:00;10.70;99.90
59075;DHT22;44860;53.020;6.738;2022-09-27T16:05:26;10.70;99.90
59075;DHT22;44860;53.020;6.738;2022-09-27T16:07:54;10.70;99.90
59075;DHT22;44860;53.020;6.738;2022-09-27T16:10:25;10.70;99.90
59075;DHT22;44860;53.020;6.738;2022-09-27T16:12:51;10.70;99.90
59075;DHT22;44860;53.020;6.738;2022-09-27T16:15:17;10.70;99.90
59075;DHT22;44860;53.020;6.738;2022-09-27T16:17:43;10.70;99.90
59075;DHT22;44860;53.020;6.738;2022-09-27T16:20:23;10.70;99.90
59075;DHT22;44860;53.020;6.738;2022-09-27T16:22:50;10.70;99.90
59075;DHT22;44860;53.020;6.738;2022-09-27T16:25:17;10.70;99.90
59075;DHT22;44860;53.020;6.738;2022-09-27T16:27:43;10.70;99.90
59075;DHT22;44860;53.020;6.738;2022-09-27T16:30:09;10.70;99.90
59075;DHT22;44860;53.020;6.738;2022-09-27T16:32:45;10.70;99.90
59075;DHT22;44860;53.020;6.738;2022-09-27T16:35:13;10.60;99.90
59075;DHT22;44860;53.020;6.738;2022-09-27T16:37:39;10.60;99.90
59075;DHT22;44860;53.020;6.738;2022-09-27T16:40:06;10.60;99.90
59075;DHT22;44860;53.020;6.738;2022-09-27T16:42:33;10.60;99.90
59075;DHT22;44860;53.020;6.738;2022-09-27T16:44:59;10.60;99.90
59075;DHT22;44860;53.020;6.738;2022-09-27T16:47:29;10.60;99.90
59075;DHT22;44860;53.020;6.738;2022-09-27T16:49:55;10.60;99.90
59075;DHT22;44860;53.020;6.738;2022-09-27T16:52:39;10.60;99.90
59075;DHT22;44860;53.020;6.738;2022-09-27T16:55:06;10.60;99.90
59075;DHT22;44860;53.020;6.738;2022-09-27T16:57:32;10.50;99.90
59075;DHT22;44860;53.020;6.738;2022-09-27T16:59:59;10.60;99.90
59075;DHT22;44860;53.020;6.738;2022-09-27T17:02:25;10.50;99.90
59075;DHT22;44860;53.020;6.738;2022-09-27T17:04:51;10.50;99.90
59075;DHT22;44860;53.020;6.738;2022-09-27T17:07:18;10.50;99.90
59075;DHT22;44860;53.020;6.738;2022-09-27T17:09:44;10.50;99.90
59075;DHT22;44860;53.020;6.738;2022-09-27T17:12:11;10.50;99.90
59075;DHT22;44860;53.020;6.738;2022-09-27T17:14:39;10.50;99.90
59075;DHT22;44860;53.020;6.738;2022-09-27T17:17:05;10.40;99.90
59075;DHT22;44860;53.020;6.738;2022-09-27T17:19:31;10.40;99.90
59075;DHT22;44860;53.020;6.738;2022-09-27T17:21:58;10.40;99.90
59075;DHT22;44860;53.020;6.738;2022-09-27T17:24:24;10.40;99.90
59075;DHT22;44860;53.020;6.738;2022-09-27T17:26:50;10.40;99.90
59075;DHT22;44860;53.020;6.738;2022-09-27T17:29:16;10.30;99.90
59075;DHT22;44860;53.020;6.738;2022-09-27T17:31:41;10.30;99.90
59075;DHT22;44860;53.020;6.738;2022-09-27T17:34:09;10.30;99.90
59075;DHT22;44860;53.020;6.738;2022-09-27T17:36:38;10.20;99.90
59075;DHT22;44860;53.020;6.738;2022-09-27T17:39:06;10.20;99.90
59075;DHT22;44860;53.020;6.738;2022-09-27T17:41:34;10.20;99.90
59075;DHT22;44860;53.020;6.738;2022-09-27T17:44:01;10.10;99.90
59075;DHT22;44860;53.020;6.738;2022-09-27T17:46:35;10.10;99.90
59075;DHT22;44860;53.020;6.738;2022-09-27T17:49:01;10.10;99.90
59075;DHT22;44860;53.020;6.738;2022-09-27T17:51:48;10.00;99.90
59075;DHT22;44860;53.020;6.738;2022-09-27T17:54:14;10.00;99.90
59075;DHT22;44860;53.020;6.738;2022-09-27T17:56:43;10.00;99.90
59075;DHT22;44860;53.020;6.738;2022-09-27T17:59:10;9.90;99.90
59075;DHT22;44860;53.020;6.738;2022-09-27T18:01:37;9.90;99.90
59075;DHT22;44860;53.020;6.738;2022-09-27T18:04:05;9.90;99.90
59075;DHT22;44860;53.020;6.738;2022-09-27T18:06:31;9.90;99.90
59075;DHT22;44860;53.020;6.738;2022-09-27T18:08:56;9.90;99.90
59075;DHT22;44860;53.020;6.738;2022-09-27T18:11:24;9.90;99.90
59075;DHT22;44860;53.020;6.738;2022-09-27T18:13:55;9.80;99.90
59075;DHT22;44860;53.020;6.738;2022-09-27T18:16:22;9.90;99.90
59075;DHT22;44860;53.020;6.738;2022-09-27T18:18:54;9.80;99.90
59075;DHT22;44860;53.020;6.738;2022-09-27T18:21:20;9.90;99.90
59075;DHT22;44860;53.020;6.738;2022-09-27T18:23:52;9.80;99.90
59075;DHT22;44860;53.020;6.738;2022-09-27T18:26:19;9.80;99.90
59075;DHT22;44860;53.020;6.738;2022-09-27T18:28:49;9.80;99.90
59075;DHT22;44860;53.020;6.738;2022-09-27T18:31:17;9.80;99.90
59075;DHT22;44860;53.020;6.738;2022-09-27T18:33:43;9.80;99.90
59075;DHT22;44860;53.020;6.738;2022-09-27T18:36:14;9.70;99.90
59075;DHT22;44860;53.020;6.738;2022-09-27T18:38:40;9.70;99.90
59075;DHT22;44860;53.020;6.738;2022-09-27T18:41:17;9.70;99.90
59075;DHT22;44860;53.020;6.738;2022-09-27T18:43:44;9.70;99.90
59075;DHT22;44860;53.020;6.738;2022-09-27T18:46:15;9.60;99.90
59075;DHT22;44860;53.020;6.738;2022-09-27T18:48:41;9.60;99.90
59075;DHT22;44860;53.020;6.738;2022-09-27T18:51:07;9.60;99.90